Tiempo atmosférico en la estación meteorológica de Barbastro, Huesca (305 m.)

Fecha
DESCASC
Temp. máxima en grados centígrados (hora)
DESCASC
Temp. mínima en grados centígrados (hora)
DESCASC
Temp. media en grados centígrados
DESCASC
Racha de viento máxima en m/sg (hora)
DESCASC
Velocidad máxima media en intervalos de 10 minutos(hora)
DESCASC
Precipitaciones diarias en mm
DESCASC
Precipitaciones de 00:00 a 06:00 en mm
DESCASC
Precipitaciones de 06:00 a 12:00 en mm
DESCASC
Precipitaciones de 12:00 a 18:00 en mm
DESCASC
Precipitaciones de 18:00 a 24:00 en mm
DESCASC
17-09-2017 23.6 (17:00) 4.6 (07:30) 14.1 7.78 (17:10) 3.61 (15:50) 0 0 0 0 0
16-09-2017 21.5 (17:00) 7.4 (03:30) 14.5 10.83 (18:10) 5 (18:50) 0 0 0 0 0
15-09-2017 16.8 (00:00) 9.1 (23:59) 12.9 5.56 (01:50) 2.5 (17:00) 14.8 5.2 9.4 0 0.2
14-09-2017 30.1 (14:10) 12.5 (00:00) 21.3 15.28 (14:50) 7.22 (15:30) 0 0 0 0 0
13-09-2017 30.3 (18:00) 9.2 (00:00) 19.7 5.83 (14:30) 2.5 (11:30) 0 0 0 0 0
12-09-2017 27.2 (15:30) 12.2 (00:00) 19.7 15.28 (16:00) 6.11 (16:00) 0 0 0 0 0
11-09-2017 29.1 (13:50) 10.9 (00:00) 20 14.72 (16:00) 6.94 (18:20) 0 0 0 0 0
10-09-2017 26.1 (14:30) 10.7 (00:00) 18.4 17.5 (15:20) 7.5 (16:40) 0 0 0 0 0
09-09-2017 24.9 (16:10) 12.1 (00:00) 18.5 11.94 (18:10) 6.11 (16:50) 0 0 0 0 0
08-09-2017 27.7 (17:40) 8 (00:00) 17.9 5.56 (15:10) 2.5 (14:50) 0 0 0 0 0
07-09-2017 28.3 (17:30) 9.9 (00:00) 19.1 8.61 (18:40) 3.89 (17:50) 0 0 0 0 0
06-09-2017 31.6 (17:10) 15.7 (00:00) 23.7 9.44 (18:10) 5 (18:00) 0 0 0 0 0
05-09-2017 32.1 (18:10) 15.5 (00:00) 23.8 5.83 (18:20) 2.78 (17:10) 0 0 0 0 0
04-09-2017 30.6 (16:40) 16.4 (00:00) 23.5 6.94 (18:40) 3.33 (18:40) 0.4 0.4 0 0 0
03-09-2017 30 (17:10) 8.9 (00:00) 19.4 9.72 (18:20) 4.44 (18:20) 0 0 0 0 0
02-09-2017 28.3 (16:40) 7.3 (00:00) 17.8 11.39 (18:00) 5.83 (19:00) 0 0 0 0 0
01-09-2017 27.9 (15:20) 13.6 (00:00) 20.8 12.78 (18:30) 6.11 (18:00) 0 0 0 0 0
31-08-2017 28.1 (16:50) 17.1 (00:00) 22.6 7.78 (14:30) 4.17 (18:10) 0 0 0 0 0
30-08-2017 28 (13:50) 17.5 (00:00) 22.8 6.94 (06:00) 3.33 (06:00) 0.2 0 0 0 0.2
29-08-2017 29.2 (14:00) 17.5 (00:00) 23.4 10.56 (01:00) 5 (01:00) 0 0 0 0 0
28-08-2017 34.1 (15:50) 16.2 (00:00) 25.1 10.56 (18:40) 4.17 (18:40) 0.2 0 0 0 0.2
27-08-2017 34.3 (14:40) 20.6 (00:00) 27.4 13.61 (18:00) 5.56 (18:30) 0.4 0 0 0 0.4
26-08-2017 34.3 (17:00) 16.5 (00:00) 25.4 6.94 (20:40) 3.61 (19:30) 0 0 0 0 0
25-08-2017 33.5 (18:40) 16 (00:00) 24.8 9.72 (20:00) 5 (19:50) 0 0 0 0 0
24-08-2017 33.3 (17:50) 19.4 (00:00) 26.3 9.17 (03:40) 5 (01:00) 5.6 5.6 0 0 0
23-08-2017 33.2 (16:10) 18.5 (00:00) 25.9 10 (17:00) 5.28 (17:00) 0 0 0 0 0
22-08-2017 35.5 (17:10) 15.6 (00:00) 25.6 6.39 (14:00) 3.33 (16:10) 0 0 0 0 0

Gráficas

Temp. máximas Temp. mínimas Temp. medias Precipitaciones Rachas de viento máximas Velocidades máximas media en intervalos de 10 minutos

Datos horarios

Fecha y hora oficial Temperatura (ºC) Velocidad del viento (km/h) Dirección del viento Racha (km/h) Dirección de racha Precipitación (mm) Presión (hPa) Tendencia (hPa) Humedad (%)
2017-09-20 23:00:00 11.9 0 Calma 7 Noroeste 0 -- -- 69
2017-09-20 22:00:00 13.1 0 Calma 4 Noroeste 0 -- -- 65
2017-09-20 21:00:00 15.7 0 Calma 4 Este 0 -- -- 56
2017-09-20 20:00:00 19.5 0 Calma 4 Sudeste 0 -- -- 45
2017-09-20 19:00:00 23.4 3 Sudeste 9 Este 0 -- -- 36
2017-09-20 18:00:00 24.2 5 Sudeste 14 Sudeste 0 -- -- 28
2017-09-20 17:00:00 24 5 Sur 14 Nordeste 0 -- -- 29
2017-09-20 16:00:00 23.8 7 Sudeste 15 Sudeste 0 -- -- 29
2017-09-20 15:00:00 22.8 5 Sudeste 18 Sudeste 0 -- -- 32
2017-09-20 14:00:00 21.7 9 Sur 21 Sur 0 -- -- 36
2017-09-20 13:00:00 20.7 8 Sur 15 Sur 0 -- -- 37
2017-09-20 12:00:00 19.6 5 Sudeste 13 Este 0 -- -- 38
2017-09-20 11:00:00 17.5 2 Nordeste 8 Sudeste 0 -- -- 40
2017-09-20 10:00:00 13.8 0 Calma 5 Noroeste 0 -- -- 54
2017-09-20 09:00:00 8.7 0 Calma 10 Oeste 0 -- -- 74
2017-09-20 08:00:00 5.7 4 Noroeste 6 Noroeste 0 -- -- 83
2017-09-20 07:00:00 5.4 0 Calma 2 Oeste 0 -- -- 83
2017-09-20 06:00:00 6 0 Calma 0 Calma 0 -- -- 82
2017-09-20 05:00:00 6.6 0 Calma 4 Noroeste 0 -- -- 81
2017-09-20 04:00:00 7.3 0 Calma 6 Oeste 0 -- -- 78
2017-09-20 03:00:00 8 0 Calma 5 Noroeste 0 -- -- 78
2017-09-20 02:00:00 8.6 0 Calma 4 Oeste 0 -- -- 77
2017-09-20 01:00:00 9.6 0 Calma 5 Noroeste 0 -- -- 71
2017-09-20 00:00:00 10.8 3 Sur 7 Oeste 0 -- -- 67
2017-09-19 23:00:00 13.6 0 Calma 8 Sudeste 0 -- -- 56
2017-09-19 22:00:00 17.6 5 Noroeste 13 Noroeste 0 -- -- 38
2017-09-19 21:00:00 18.6 4 Noroeste 24 Oeste 0 -- -- 34
2017-09-19 20:00:00 20.9 11 Oeste 32 Oeste 0 -- -- 31
2017-09-19 19:00:00 23.9 10 Sudoeste 28 Oeste 0 -- -- 27
2017-09-19 18:00:00 25.4 15 Oeste 33 Sudoeste 0 -- -- 23
2017-09-19 17:00:00 26.7 10 Oeste 26 Oeste 0 -- -- 21
2017-09-19 16:00:00 25.7 8 Sur 21 Oeste 0 -- -- 23
2017-09-19 15:00:00 24.6 8 Sudoeste 21 Sudoeste 0 -- -- 24
2017-09-19 14:00:00 23.4 5 Noroeste 19 Sudoeste 0 -- -- 28
2017-09-19 13:00:00 21.4 7 Sur 15 Sudoeste 0 -- -- 34
2017-09-19 12:00:00 19.3 4 Sudoeste 12 Sudoeste 0 -- -- 36
2017-09-19 11:00:00 17.1 4 Sur 12 Oeste 0 -- -- 45
2017-09-19 10:00:00 14.1 6 Noroeste 11 Noroeste 0 -- -- 58
2017-09-19 09:00:00 8.4 4 Noroeste 7 Noroeste 0 -- -- 82
2017-09-19 08:00:00 5.9 0 Calma 8 Norte 0 -- -- 88
2017-09-19 07:00:00 7.5 5 Noroeste 13 Noroeste 0 -- -- 83
2017-09-19 06:00:00 7.8 6 Noroeste 14 Noroeste 0 -- -- 82
2017-09-19 05:00:00 6.9 0 Calma 4 Noroeste 0 -- -- 88
2017-09-19 04:00:00 7.7 0 Calma 8 Norte 0 -- -- 87
2017-09-19 03:00:00 8.7 0 Calma 5 Sudoeste 0 -- -- 84
2017-09-19 02:00:00 9.9 0 Calma 7 Oeste 0 -- -- 81
2017-09-19 01:00:00 11.4 0 Calma 6 Noroeste 0 -- -- 77
2017-09-19 00:00:00 13.6 0 Calma 16 Oeste 0 -- -- 70
2017-09-18 23:00:00 15.5 5 Noroeste 16 Noroeste 0 -- -- 59
2017-09-18 22:00:00 17.9 7 Noroeste 17 Norte 0 -- -- 53
2017-09-18 21:00:00 19.2 7 Oeste 26 Oeste 0 -- -- 50
2017-09-18 20:00:00 20.8 14 Oeste 28 Sudoeste 0 -- -- 46
2017-09-18 19:00:00 22.8 13 Oeste 40 Oeste 0 -- -- 38
2017-09-18 18:00:00 23.3 14 Oeste 39 Oeste 0 -- -- 39
2017-09-18 17:00:00 23.7 14 Oeste 31 Oeste 0 -- -- 38
2017-09-18 16:00:00 23.5 11 Oeste 33 Oeste 0 -- -- 39
2017-09-18 15:00:00 22.4 12 Oeste 30 Sudoeste 0 -- -- 42
2017-09-18 14:00:00 21.5 12 Oeste 30 Oeste 0.2 -- -- 46
2017-09-18 13:00:00 20.3 8 Oeste 21 Noroeste 0 -- -- 50
2017-09-18 12:00:00 18.2 9 Norte 23 Norte 0 -- -- 59
2017-09-18 11:00:00 15.1 9 Norte 23 Norte 0 -- -- 78
2017-09-18 10:00:00 12.7 6 Norte 15 Norte 1.2 -- -- 86
2017-09-18 09:00:00 12.4 6 Noroeste 13 Noroeste 0.2 -- -- 80
2017-09-18 08:00:00 10.6 3 Noroeste 6 Noroeste 0 -- -- 88
2017-09-18 07:00:00 10.5 0 Calma 3 Norte 0 -- -- 86
2017-09-18 06:00:00 10.4 0 Calma 4 Noroeste 0 -- -- 86
2017-09-18 05:00:00 10.1 0 Calma 5 Noroeste 0 -- -- 85
2017-09-18 04:00:00 10.6 0 Calma 8 Noroeste 0 -- -- 83
2017-09-18 03:00:00 10.5 0 Calma 3 Noroeste 0 -- -- 84
2017-09-18 02:00:00 12.3 0 Calma 2 Noroeste 0 -- -- 77
2017-09-18 01:00:00 14.2 2 Noroeste 4 Norte 0 -- -- 74
2017-09-18 00:00:00 15.1 0 Calma -- -- 0 -- -- 70
2017-09-17 23:00:00 15.5 0 Calma 7 Este 0 -- -- 65
2017-09-17 22:00:00 16.7 3 Sudeste 6 Este 0 -- -- 57
2017-09-17 21:00:00 18.1 4 Sudeste 11 Sudoeste 0 -- -- 51
2017-09-17 20:00:00 20.1 7 Sudoeste 15 Sudoeste 0 -- -- 35
2017-09-17 19:00:00 22.5 7 Oeste 22 Noroeste 0 -- -- 29
2017-09-17 18:00:00 22.5 5 Oeste 28 Sudoeste 0 -- -- 30
2017-09-17 17:00:00 23.6 8 Oeste 25 Sur 0 -- -- 30
2017-09-17 16:00:00 22.7 11 Sudoeste 25 Sudoeste 0 -- -- 32
2017-09-17 15:00:00 21.9 8 Sudoeste 19 Sur 0 -- -- 36
2017-09-17 14:00:00 20.2 6 Sur 19 Sudoeste 0 -- -- 42
2017-09-17 13:00:00 19.3 10 Sur 19 Sudoeste 0 -- -- 43
2017-09-17 12:00:00 17.3 6 Sur 14 Sur 0 -- -- 48
2017-09-17 11:00:00 14.4 2 Sur 8 Sudeste 0 -- -- 61
2017-09-17 10:00:00 12.1 2 Sudeste 6 Sudeste 0 -- -- 71
2017-09-17 09:00:00 7.7 0 Calma 8 Noroeste 0 -- -- 87
2017-09-17 08:00:00 5 4 Noroeste 6 Noroeste 0 -- -- 95
2017-09-17 07:00:00 4.8 0 Calma 3 Sudoeste 0 -- -- 92
2017-09-17 06:00:00 5.4 0 Calma 5 Noroeste 0 -- -- 90
2017-09-17 05:00:00 6.1 3 Noroeste 7 Noroeste 0 -- -- 90
2017-09-17 04:00:00 6.3 0 Calma 6 Noroeste -- -- -- 90
2017-09-17 03:00:00 6.8 3 Oeste 5 Sudoeste 0 -- -- 89
2017-09-17 02:00:00 7.5 2 Noroeste 7 Noroeste 0 -- -- 87
2017-09-17 01:00:00 7.9 0 Calma 6 Oeste 0 -- -- 85
2017-09-17 00:00:00 9.2 3 Norte 5 Norte 0 -- -- 81
2017-09-16 23:00:00 11.1 0 Calma 7 Norte 0 -- -- 68
2017-09-16 22:00:00 14.2 3 Noroeste 17 Noroeste 0 -- -- 55
2017-09-16 21:00:00 15.8 7 Oeste 21 Oeste 0 -- -- 46
2017-09-16 20:00:00 17.6 8 Oeste 34 Oeste 0 -- -- 41
2017-09-16 19:00:00 20 12 Oeste 39 Oeste 0 -- -- 33
2017-09-16 18:00:00 21.1 12 Oeste 36 Oeste 0 -- -- 32
2017-09-16 17:00:00 21.5 13 Oeste 38 Oeste 0 -- -- 33
2017-09-16 16:00:00 20.5 14 Sudoeste 32 Sudeste 0 -- -- 37
2017-09-16 15:00:00 18.9 7 Sudeste 19 Sudeste 0 -- -- 52
2017-09-16 14:00:00 17.3 8 Sudeste 20 Sur 0 -- -- 59
2017-09-16 13:00:00 15.8 8 Sudeste 14 Este 0 -- -- 63
2017-09-16 12:00:00 14.2 6 Sudeste 12 Este 0 -- -- 74
2017-09-16 11:00:00 12.1 0 Calma 12 Noroeste 0 -- -- 81
2017-09-16 10:00:00 11.1 0 Calma 6 Sur 0 -- -- 86
2017-09-16 09:00:00 10.4 3 Nordeste 7 Nordeste 0 -- -- 92
2017-09-16 08:00:00 10 0 Calma 4 Sur 0 -- -- 98
2017-09-16 07:00:00 9.8 0 Calma 4 Noroeste 0 -- -- 99
2017-09-16 06:00:00 9.1 0 Calma -- -- 0 -- -- 99
2017-09-16 05:00:00 8.1 0 Calma 2 Nordeste 0 -- -- 99
2017-09-16 04:00:00 7.5 0 Calma 3 Oeste 0 -- -- 97
2017-09-16 03:00:00 7.6 0 Calma 2 Noroeste 0 -- -- 96
2017-09-16 02:00:00 7.9 0 Calma 4 Sudeste 0 -- -- 96
2017-09-16 01:00:00 8.3 0 Calma 3 Noroeste 0 -- -- 94
2017-09-16 00:00:00 9.1 0 Calma 4 Oeste 0 -- -- 93
2017-09-15 23:00:00 10 0 Calma 3 Este 0 -- -- 92
2017-09-15 22:00:00 10.7 0 Calma 4 Nordeste 0 -- -- 91
2017-09-15 21:00:00 11.5 2 Nordeste 5 Nordeste 0 -- -- 85
2017-09-15 20:00:00 13.7 0 Calma 12 Este 0.2 -- -- 78
2017-09-15 19:00:00 15 5 Sudeste 11 Sudeste 0 -- -- 68
2017-09-15 18:00:00 14.3 6 Sudeste 17 Sudeste 0 -- -- 73
2017-09-15 17:00:00 14.4 9 Sudeste 17 Sudeste 0 -- -- 75
2017-09-15 16:00:00 14.1 8 Sudeste 16 Este 0 -- -- 78
2017-09-15 15:00:00 14.2 6 Sur 13 Sur 0 -- -- 72
2017-09-15 14:00:00 13.4 8 Sur 12 Sur 0 -- -- 83
2017-09-15 13:00:00 13.1 4 Sur 11 Sudoeste 0 -- -- 84
2017-09-15 12:00:00 12.7 5 Sudoeste 12 Oeste 0 -- -- 90
2017-09-15 11:00:00 12.6 3 Oeste 8 Sudoeste 0 -- -- 91
2017-09-15 10:00:00 11.9 2 Sudoeste 9 Noroeste 4.2 -- -- 93
2017-09-15 09:00:00 12 4 Oeste 15 Sudoeste 3.4 -- -- 93
2017-09-15 08:00:00 11.8 0 Calma 7 Sudoeste 1.2 -- -- 94
2017-09-15 07:00:00 12 2 Sur 8 Noroeste 0.6 -- -- 94
2017-09-15 06:00:00 11.9 3 Noroeste 11 Este 1.2 -- -- 91
2017-09-15 05:00:00 12.2 6 Sudeste 15 Este 2.4 -- -- 91
2017-09-15 04:00:00 12.5 6 Sudoeste 13 Sudoeste 0.8 -- -- 88
2017-09-15 03:00:00 12.9 3 Sudoeste 10 Oeste 0 -- -- 80
2017-09-15 02:00:00 13.7 5 Sudeste 20 Sur 0.4 -- -- 68
2017-09-15 01:00:00 16 3 Oeste 14 Sudoeste 0.4 -- -- 60
2017-09-15 00:00:00 16.8 7 Sudoeste 15 Sudoeste 0 -- -- 49
2017-09-14 23:00:00 17.5 9 Oeste 31 Sudoeste 0 -- -- 48
2017-09-14 22:00:00 18.7 13 Sudoeste 41 Oeste 0 -- -- 42
2017-09-14 21:00:00 20.5 17 Oeste 36 Oeste 0 -- -- 33
2017-09-14 20:00:00 22.6 10 Oeste 37 Oeste 0 -- -- 30
2017-09-14 19:00:00 25.6 20 Oeste 41 Oeste 0 -- -- 29
2017-09-14 18:00:00 27.4 18 Oeste 48 Oeste 0 -- -- 30
2017-09-14 17:00:00 28.5 21 Oeste 45 Sudoeste 0 -- -- 30
2017-09-14 16:00:00 28.7 21 Oeste 55 Oeste 0 -- -- 30
2017-09-14 15:00:00 29.2 22 Oeste 55 Oeste 0 -- -- 31
2017-09-14 14:00:00 29.8 12 Oeste 32 Sur 0 -- -- 35
2017-09-14 13:00:00 28.2 9 Sudoeste 24 Noroeste 0 -- -- 41
2017-09-14 12:00:00 25.7 8 Sudeste 15 Sudoeste 0 -- -- 51
2017-09-14 11:00:00 23.1 3 Sudeste 9 Sudeste 0 -- -- 58
2017-09-14 10:00:00 19.6 0 Calma 9 Noroeste 0 -- -- 59
2017-09-14 09:00:00 15.8 5 Noroeste 9 Noroeste 0 -- -- 72
2017-09-14 08:00:00 12.9 4 Noroeste 8 Noroeste 0 -- -- 81
2017-09-14 07:00:00 12.6 2 Oeste 7 Noroeste 0 -- -- 82
2017-09-14 06:00:00 13.4 0 Calma 5 Noroeste 0 -- -- 80
2017-09-14 05:00:00 14.2 5 Noroeste 8 Noroeste 0 -- -- 77
2017-09-14 04:00:00 14 0 Calma 3 Norte -- -- -- 78
2017-09-14 03:00:00 14.8 2 Noroeste 6 Noroeste 0 -- -- 76
2017-09-14 02:00:00 15.6 3 Noroeste 6 Norte 0 -- -- 74
2017-09-14 01:00:00 16.5 3 Noroeste 6 Noroeste 0 -- -- 72
2017-09-14 00:00:00 16.8 0 Calma 8 Oeste 0 -- -- 69
2017-09-13 23:00:00 17.9 0 Calma 4 Noroeste 0 -- -- 66
2017-09-13 22:00:00 19.9 0 Calma 3 Sur 0 -- -- 60
2017-09-13 21:00:00 22.8 0 Calma 7 Sudeste 0 -- -- 53
2017-09-13 20:00:00 26.3 3 Sudeste 9 Sudeste 0 -- -- 45
2017-09-13 19:00:00 29.3 5 Sudeste 13 Sudoeste 0 -- -- 34
2017-09-13 18:00:00 30.3 4 Sur 17 Sur 0 -- -- 32
2017-09-13 17:00:00 29.8 5 Sur 18 Sur 0 -- -- 34
2017-09-13 16:00:00 28.8 6 Sur 17 Sur 0 -- -- 34
2017-09-13 15:00:00 27.6 6 Sur 21 Sur 0 -- -- 35
2017-09-13 14:00:00 26.5 6 Sudoeste 17 Sur 0 -- -- 36
2017-09-13 13:00:00 24.8 6 Sudeste 17 Sudeste 0 -- -- 37
2017-09-13 12:00:00 22.3 7 Sudeste 19 Sur 0 -- -- 45
2017-09-13 11:00:00 20.7 9 Sudeste 17 Sudeste 0 -- -- 47
2017-09-13 10:00:00 18.8 4 Sudeste 8 Noroeste 0 -- -- 46
2017-09-13 09:00:00 13.2 5 Noroeste 9 Noroeste 0 -- -- 57
2017-09-13 08:00:00 9.2 0 Calma 4 Noroeste 0 -- -- 74
2017-09-13 07:00:00 9.5 0 Calma 4 Noroeste 0 -- -- 73
2017-09-13 06:00:00 10 0 Calma 5 Noroeste 0 -- -- 72
2017-09-13 05:00:00 10.9 0 Calma 4 Nordeste 0 -- -- 71
2017-09-13 04:00:00 11.7 0 Calma 4 Sudoeste 0 -- -- 68
2017-09-13 03:00:00 12.8 0 Calma 4 Nordeste 0 -- -- 64
2017-09-13 02:00:00 14.2 3 Sudeste 13 Nordeste 0 -- -- 58
2017-09-13 01:00:00 15.5 3 Norte 10 Sur 0 -- -- 48
2017-09-13 00:00:00 15.3 2 Sur 8 Sur 0 -- -- 48
2017-09-12 23:00:00 16.6 4 Este 10 Oeste 0 -- -- 46
2017-09-12 22:00:00 20.3 5 Noroeste 27 Noroeste 0 -- -- 33
2017-09-12 21:00:00 21.7 13 Oeste 27 Noroeste 0 -- -- 33
2017-09-12 20:00:00 23.2 11 Oeste 33 Oeste 0 -- -- 30
2017-09-12 19:00:00 24.9 14 Oeste 39 Oeste 0 -- -- 29
2017-09-12 18:00:00 25.8 19 Oeste 49 Oeste 0 -- -- 27
2017-09-12 17:00:00 26.7 20 Oeste 45 Sudoeste 0 -- -- 26
2017-09-12 16:00:00 26.6 22 Oeste 55 Sudoeste 0 -- -- 26
2017-09-12 15:00:00 26.7 16 Oeste 40 Sudoeste 0 -- -- 28
2017-09-12 14:00:00 26.6 9 Noroeste 22 Noroeste 0 -- -- 26
2017-09-12 13:00:00 24.6 6 Nordeste 22 Nordeste 0 -- -- 35
2017-09-12 12:00:00 21.9 6 Nordeste 18 Oeste 0 -- -- 43
2017-09-12 11:00:00 20.2 3 Norte 24 Oeste 0 -- -- 50
2017-09-12 10:00:00 17.7 10 Oeste 27 Sudoeste 0 -- -- 58
2017-09-12 09:00:00 15.7 4 Noroeste 19 Oeste 0 -- -- 66
2017-09-12 08:00:00 14.2 8 Oeste 20 Oeste 0 -- -- 71
2017-09-12 07:00:00 12.7 0 Calma 9 Nordeste 0 -- -- 78
2017-09-12 06:00:00 14.2 3 Sudeste 26 Sudoeste 0 -- -- 72
2017-09-12 05:00:00 14.1 7 Sudoeste 18 Sur 0 -- -- 72
2017-09-12 04:00:00 13.5 3 Sur 7 Oeste 0 -- -- 73
2017-09-12 03:00:00 14.9 0 Calma 6 Oeste 0 -- -- 69
2017-09-12 02:00:00 16.7 2 Sudoeste 10 Sudoeste 0 -- -- 62
2017-09-12 01:00:00 17.7 11 Oeste 25 Oeste 0 -- -- 58
2017-09-12 00:00:00 18.5 7 Sudoeste 31 Oeste 0 -- -- 56
2017-09-11 23:00:00 20.3 10 Sudoeste 21 Sudoeste 0 -- -- 49
2017-09-11 22:00:00 22.2 9 Sudoeste 18 Oeste 0 -- -- 44
2017-09-11 21:00:00 23.3 4 Oeste 17 Sudoeste 0 -- -- 41
2017-09-11 20:00:00 25.1 9 Oeste 40 Oeste 0 -- -- 36
2017-09-11 19:00:00 26.4 20 Noroeste 48 Oeste 0 -- -- 32
2017-09-11 18:00:00 27.6 21 Oeste 42 Oeste 0 -- -- 27
2017-09-11 17:00:00 28.4 21 Oeste 53 Sudoeste 0 -- -- 28
2017-09-11 16:00:00 28.8 19 Oeste 53 Sudoeste 0 -- -- 31
2017-09-11 15:00:00 28.8 18 Oeste 50 Sudoeste 0 -- -- 33
2017-09-11 14:00:00 28.7 22 Oeste 48 Sudoeste 0 -- -- 34
2017-09-11 13:00:00 28.8 17 Oeste 49 Noroeste 0 -- -- 30
2017-09-11 12:00:00 27.2 17 Oeste 42 Oeste 0 -- -- 41
2017-09-11 11:00:00 25.3 15 Oeste 34 Sudoeste 0 -- -- 48
2017-09-11 10:00:00 22 6 Este 20 Noroeste 0 -- -- 57
2017-09-11 09:00:00 15.5 4 Nordeste 10 Nordeste 0 -- -- 80
2017-09-11 08:00:00 11.5 4 Sudeste 12 Oeste 0 -- -- 82
2017-09-11 07:00:00 11 0 Calma 6 Oeste 0 -- -- 82
2017-09-11 06:00:00 11.8 3 Este 8 Sudoeste 0 -- -- 79
2017-09-11 05:00:00 12.7 0 Calma 6 Oeste 0 -- -- 73
2017-09-11 04:00:00 14.1 0 Calma 7 Oeste 0 -- -- 68
2017-09-11 03:00:00 14.9 2 Oeste 11 Oeste 0 -- -- 59
2017-09-11 02:00:00 16.9 5 Oeste 27 Sudoeste 0 -- -- 53
2017-09-11 01:00:00 15.9 4 Noroeste 12 Oeste 0 -- -- 51
2017-09-11 00:00:00 17.2 0 Calma 18 Oeste 0 -- -- 52
2017-09-10 23:00:00 18.7 10 Oeste 21 Noroeste 0 -- -- 46
2017-09-10 22:00:00 19.3 9 Oeste 24 Noroeste 0 -- -- 46
2017-09-10 21:00:00 19.6 10 Oeste 32 Oeste 0 -- -- 46
2017-09-10 20:00:00 21.4 9 Oeste 35 Noroeste 0 -- -- 40
2017-09-10 19:00:00 23.3 13 Oeste 42 Sudoeste 0 -- -- 36
2017-09-10 18:00:00 24.8 15 Oeste 47 Oeste 0 -- -- 31
2017-09-10 17:00:00 24.1 23 Oeste 56 Oeste 0 -- -- 34
2017-09-10 16:00:00 25.2 19 Oeste 63 Oeste 0 -- -- 31
2017-09-10 15:00:00 24.2 20 Oeste 45 Oeste 0 -- -- 34
2017-09-10 14:00:00 25.9 14 Oeste 46 Oeste 0 -- -- 27
2017-09-10 13:00:00 23.8 19 Oeste 44 Oeste 0 -- -- 32
2017-09-10 12:00:00 22.7 13 Oeste 32 Oeste 0 -- -- 32
2017-09-10 11:00:00 20 14 Oeste 34 Oeste 0 -- -- 40
2017-09-10 10:00:00 18 12 Oeste 28 Oeste 0 -- -- 45
2017-09-10 09:00:00 15.2 12 Oeste 22 Oeste 0 -- -- 51
2017-09-10 08:00:00 11 3 Sudeste 18 Oeste 0 -- -- 67
2017-09-10 07:00:00 11 3 Sur 10 Oeste 0 -- -- 67
2017-09-10 06:00:00 12.9 5 Oeste 14 Sudoeste 0 -- -- 57
2017-09-10 05:00:00 12.3 5 Norte 12 Oeste 0 -- -- 58
2017-09-10 04:00:00 14 2 Noroeste 24 Noroeste 0 -- -- 53
2017-09-10 03:00:00 15 10 Oeste 25 Oeste 0 -- -- 48
2017-09-10 02:00:00 15.1 8 Sudoeste 16 Oeste 0 -- -- 49
2017-09-10 01:00:00 15.9 4 Noroeste 16 Oeste 0 -- -- 44
2017-09-10 00:00:00 15.9 8 Oeste 20 Oeste 0 -- -- 46
2017-09-09 23:00:00 16.5 6 Noroeste 15 Noroeste 0 -- -- 45
2017-09-09 22:00:00 18 3 Oeste 27 Oeste 0 -- -- 44
2017-09-09 21:00:00 19.4 10 Oeste 27 Oeste 0 -- -- 40
2017-09-09 20:00:00 20.9 12 Oeste 39 Oeste 0 -- -- 37
2017-09-09 19:00:00 22.9 11 Oeste 43 Oeste 0 -- -- 33
2017-09-09 18:00:00 23.5 18 Oeste 42 Sudoeste 0 -- -- 33
2017-09-09 17:00:00 23.9 18 Oeste 41 Oeste 0 -- -- 35
2017-09-09 16:00:00 24.5 18 Oeste 36 Sudoeste 0 -- -- 35
2017-09-09 15:00:00 20.4 9 Sudoeste 31 Sudoeste 0 -- -- 53
2017-09-09 14:00:00 20.3 3 Sur 6 Sudoeste 0 -- -- 54
2017-09-09 13:00:00 19.1 2 Sudeste 6 Este 0 -- -- 61
2017-09-09 12:00:00 18.7 4 Sudeste 8 Este 0 -- -- 65
2017-09-09 11:00:00 16.3 2 Sudeste 8 Nordeste 0 -- -- 81
2017-09-09 10:00:00 16.6 2 Sur 4 Este 0 -- -- 63
2017-09-09 09:00:00 16 0 Calma 6 Norte 0 -- -- 65
2017-09-09 08:00:00 15.1 0 Calma 9 Norte 0 -- -- 68
2017-09-09 07:00:00 13.9 4 Noroeste 7 Noroeste 0 -- -- 67
2017-09-09 06:00:00 13.2 0 Calma 5 Noroeste 0 -- -- 70
2017-09-09 05:00:00 13 0 Calma 7 Noroeste 0 -- -- 70
2017-09-09 04:00:00 12.5 0 Calma 8 Noroeste 0 -- -- 70
2017-09-09 03:00:00 12.2 3 Noroeste 6 Noroeste 0 -- -- 69
2017-09-09 02:00:00 13.2 4 Noroeste 12 Noroeste 0 -- -- 66
2017-09-09 01:00:00 13 0 Calma 6 Noroeste 0 -- -- 64
2017-09-09 00:00:00 14 0 Calma 5 Noroeste 0 -- -- 64
2017-09-08 23:00:00 15.3 0 Calma 6 Noroeste 0 -- -- 59
2017-09-08 22:00:00 17.2 0 Calma 3 Oeste 0 -- -- 58
2017-09-08 21:00:00 20 0 Calma 5 Nordeste 0 -- -- 50
2017-09-08 20:00:00 24.3 0 Calma 12 Sudeste 0 -- -- 42
2017-09-08 19:00:00 26.7 5 Sudeste 17 Sudeste 0 -- -- 31
2017-09-08 18:00:00 27.5 7 Sudeste 15 Este 0 -- -- 28
2017-09-08 17:00:00 27.1 7 Sudeste 17 Sudeste 0 -- -- 31
2017-09-08 16:00:00 26.6 6 Sudeste 20 Sur 0 -- -- 30
2017-09-08 15:00:00 25.2 8 Sudeste 18 Sudeste 0 -- -- 38
2017-09-08 14:00:00 24.4 6 Sudeste 18 Sur 0 -- -- 43
2017-09-08 13:00:00 22.7 7 Sur 15 Sur 0 -- -- 44
2017-09-08 12:00:00 20.8 5 Sudeste 16 Este 0 -- -- 48
2017-09-08 11:00:00 18.8 5 Sur 10 Sur 0 -- -- 54
2017-09-08 10:00:00 16 0 Calma 7 Noroeste 0 -- -- 60
2017-09-08 09:00:00 11.2 4 Noroeste 6 Noroeste 0 -- -- 77
2017-09-08 08:00:00 8 0 Calma 3 Sudoeste 0 -- -- 87
2017-09-08 07:00:00 8.4 0 Calma 4 Norte 0 -- -- 83
2017-09-08 06:00:00 9.1 0 Calma 5 Noroeste 0 -- -- 83
2017-09-08 05:00:00 9.8 0 Calma 5 Norte 0 -- -- 82
2017-09-08 04:00:00 10.7 0 Calma 4 Noroeste 0 -- -- 79
2017-09-08 03:00:00 11.8 0 Calma 5 Norte 0 -- -- 76
2017-09-08 02:00:00 12.6 0 Calma 6 Norte 0 -- -- 73
2017-09-08 01:00:00 13.3 2 Este 8 Sudeste 0 -- -- 70
2017-09-08 00:00:00 14.2 2 Sudoeste 4 Sudoeste 0 -- -- 66
2017-09-07 23:00:00 16.2 0 Calma 6 Nordeste 0 -- -- 61
2017-09-07 22:00:00 18.2 0 Calma 8 Este 0 -- -- 53
2017-09-07 21:00:00 21 4 Sudeste 13 Sudeste 0 -- -- 47
2017-09-07 20:00:00 24.2 6 Sudeste 19 Sudoeste 0 -- -- 37
2017-09-07 19:00:00 26.6 6 Sur 31 Sudoeste 0 -- -- 33
2017-09-07 18:00:00 27.8 11 Sudoeste 26 Sudoeste 0 -- -- 30
2017-09-07 17:00:00 28.1 4 Sudoeste 23 Sudeste 0 -- -- 30
2017-09-07 16:00:00 26.9 10 Sur 21 Sudoeste 0 -- -- 31
2017-09-07 15:00:00 26.1 8 Sudoeste 28 Sudoeste 0 -- -- 34
2017-09-07 14:00:00 24.5 9 Sudoeste 23 Este 0 -- -- 42
2017-09-07 13:00:00 22.8 7 Sur 16 Sudoeste 0 -- -- 48
2017-09-07 12:00:00 20.9 6 Sudeste 16 Este 0 -- -- 52
2017-09-07 11:00:00 19 5 Este 11 Este 0 -- -- 57
2017-09-07 10:00:00 16.7 3 Sudeste 8 Este 0 -- -- 65
2017-09-07 09:00:00 12.9 4 Noroeste 8 Noroeste 0 -- -- 80
2017-09-07 08:00:00 10.1 2 Oeste 6 Oeste 0 -- -- 89
2017-09-07 07:00:00 10.1 0 Calma 4 Noroeste 0 -- -- 86
2017-09-07 06:00:00 10.5 0 Calma 3 Este 0 -- -- 86
2017-09-07 05:00:00 10.9 0 Calma 4 Oeste 0 -- -- 82
2017-09-07 04:00:00 11.5 0 Calma 3 Oeste 0 -- -- 81
2017-09-07 03:00:00 12.6 0 Calma 4 Este 0 -- -- 78
2017-09-07 02:00:00 14 0 Calma 5 Sudoeste 0 -- -- 73
2017-09-07 01:00:00 15.8 0 Calma 8 Noroeste 0 -- -- 67
2017-09-07 00:00:00 17 3 Este 14 Sudoeste 0 -- -- 64
2017-09-06 23:00:00 18.4 3 Sur 10 Sur 0 -- -- 63
2017-09-06 22:00:00 20.7 3 Sur 14 Este 0 -- -- 56
2017-09-06 21:00:00 23.3 3 Norte 18 Sudoeste 0 -- -- 48
2017-09-06 20:00:00 26.5 8 Sudoeste 23 Oeste 0 -- -- 42
2017-09-06 19:00:00 29.2 10 Sudoeste 34 Sudoeste 0 -- -- 37
2017-09-06 18:00:00 30.9 18 Sudoeste 33 Sudoeste 0 -- -- 34
2017-09-06 17:00:00 31.3 13 Sur 25 Sur 0 -- -- 36
2017-09-06 16:00:00 30.3 10 Sur 21 Sur 0 -- -- 40
2017-09-06 15:00:00 28.9 5 Sudeste 17 Sudeste 0 -- -- 50
2017-09-06 14:00:00 27.6 6 Sudeste 15 Sudeste 0 -- -- 54
2017-09-06 13:00:00 25.6 6 Sudoeste 17 Sur 0 -- -- 60
2017-09-06 12:00:00 23.5 10 Sur 21 Sudoeste 0 -- -- 67
2017-09-06 11:00:00 22.7 10 Sur 19 Sur 0 -- -- 66
2017-09-06 10:00:00 22.1 3 Este 8 Sur 0 -- -- 66
2017-09-06 09:00:00 18.1 0 Calma 3 Este 0 -- -- 86
2017-09-06 08:00:00 15.8 0 Calma 6 Noroeste 0 -- -- 89
2017-09-06 07:00:00 16.2 3 Noroeste 8 Oeste 0 -- -- 88
2017-09-06 06:00:00 15.7 0 Calma 4 Noroeste 0 -- -- 85
2017-09-06 05:00:00 16.4 0 Calma 6 Noroeste 0 -- -- 82
2017-09-06 04:00:00 17.1 3 Noroeste 5 Noroeste 0 -- -- 81
2017-09-06 03:00:00 17.9 0 Calma 9 Oeste 0 -- -- 76
2017-09-06 02:00:00 18.6 3 Noroeste 6 Noroeste 0 -- -- 74
2017-09-06 01:00:00 19.4 3 Noroeste 5 Norte 0 -- -- 73
2017-09-06 00:00:00 19.8 0 Calma 5 Sudeste 0 -- -- 74
2017-09-05 23:00:00 21.6 0 Calma 4 Noroeste 0 -- -- 66
2017-09-05 22:00:00 23.1 0 Calma 4 Nordeste 0 -- -- 61
2017-09-05 21:00:00 25.6 0 Calma 5 Sudeste 0 -- -- 54
2017-09-05 20:00:00 30 2 Sur 13 Sur 0 -- -- 40
2017-09-05 19:00:00 31.8 5 Sur 21 Sur 0 -- -- 33
2017-09-05 18:00:00 31.9 8 Sur 21 Sur 0 -- -- 36
2017-09-05 17:00:00 31.8 8 Sur 19 Sur 0 -- -- 37
2017-09-05 16:00:00 31.9 6 Sudoeste 19 Sudeste 0 -- -- 38
2017-09-05 15:00:00 30.7 9 Sudoeste 16 Sur 0 -- -- 41
2017-09-05 14:00:00 29.6 7 Sudeste 17 Sur 0 -- -- 43
2017-09-05 13:00:00 28.3 9 Sur 17 Sur 0 -- -- 45
2017-09-05 12:00:00 27.2 5 Sudeste 13 Sur 0 -- -- 53
2017-09-05 11:00:00 25.6 3 Sur 9 Sudeste 0 -- -- 56
2017-09-05 10:00:00 22.9 0 Calma 4 Sudeste 0 -- -- 69
2017-09-05 09:00:00 18.1 0 Calma -- -- 0 -- -- 87
2017-09-05 08:00:00 15.5 0 Calma 0 Calma 0 -- -- 89
2017-09-05 07:00:00 15.9 0 Calma 3 Noroeste 0 -- -- 88
2017-09-05 06:00:00 16.5 0 Calma 2 Sudoeste 0 -- -- 87
2017-09-05 05:00:00 16.7 0 Calma 2 Nordeste 0 -- -- 87
2017-09-05 04:00:00 17 0 Calma 2 Noroeste 0 -- -- 86
2017-09-05 03:00:00 17.7 3 Noroeste 5 Noroeste 0 -- -- 84
2017-09-05 02:00:00 18.4 0 Calma 0 Calma 0 -- -- 83
2017-09-05 01:00:00 19.2 0 Calma 3 Oeste 0 -- -- 81
2017-09-05 00:00:00 20.2 0 Calma 5 Sudeste 0 -- -- 77
2017-09-04 23:00:00 21.2 0 Calma 5 Sudeste 0 -- -- 73
2017-09-04 22:00:00 22.2 0 Calma 4 Este 0 -- -- 71
2017-09-04 21:00:00 24.2 0 Calma 12 Este 0 -- -- 64
2017-09-04 20:00:00 26 6 Sudeste 23 Sudeste 0 -- -- 57
2017-09-04 19:00:00 27.8 10 Sudeste 25 Sudeste 0 -- -- 50
2017-09-04 18:00:00 30.1 10 Sur 18 Sur 0 -- -- 41
2017-09-04 17:00:00 30.3 9 Sudeste 21 Sur 0 -- -- 38
2017-09-04 16:00:00 30.3 10 Sudeste 21 Sudeste 0 -- -- 37
2017-09-04 15:00:00 29.5 8 Sudeste 22 Este 0 -- -- 42
2017-09-04 14:00:00 29 7 Sudeste 22 Sudeste 0 -- -- 43
2017-09-04 13:00:00 28.4 8 Sur 19 Sudeste 0 -- -- 42
2017-09-04 12:00:00 26.8 7 Este 19 Este 0 -- -- 39
2017-09-04 11:00:00 25.6 7 Sudeste 13 Este 0 -- -- 47
2017-09-04 10:00:00 23.5 0 Calma 9 Noroeste 0 -- -- 60
2017-09-04 09:00:00 18 5 Noroeste 9 Noroeste 0 -- -- 81
2017-09-04 08:00:00 16.4 0 Calma 8 Noroeste 0 -- -- 86
2017-09-04 07:00:00 16.6 3 Noroeste 5 Noroeste 0 -- -- 85
2017-09-04 06:00:00 17.3 0 Calma 10 Norte 0 -- -- 83
2017-09-04 05:00:00 17.4 4 Sudeste 8 Sudeste 0.2 -- -- 85
2017-09-04 04:00:00 17.6 0 Calma 7 Oeste 0 -- -- 86
2017-09-04 03:00:00 17.6 3 Oeste 9 Oeste 0 -- -- 84
2017-09-04 02:00:00 18.4 3 Sudoeste 8 Nordeste 0.2 -- -- 80
2017-09-04 01:00:00 19.8 5 Sudeste 10 Este 0 -- -- 71
2017-09-04 00:00:00 21 6 Este 22 Oeste 0 -- -- 61
2017-09-03 23:00:00 22.7 5 Sudoeste 18 Noroeste 0 -- -- 46
2017-09-03 22:00:00 22.8 0 Calma 8 Este 0 -- -- 45
2017-09-03 21:00:00 25.2 6 Sudoeste 18 Oeste 0 -- -- 37
2017-09-03 20:00:00 27.1 8 Oeste 22 Sudoeste 0 -- -- 31
2017-09-03 19:00:00 27.7 10 Sudoeste 35 Sudoeste 0 -- -- 28
2017-09-03 18:00:00 29.2 12 Oeste 30 Oeste 0 -- -- 25
2017-09-03 17:00:00 29.7 15 Sudoeste 33 Oeste 0 -- -- 25
2017-09-03 16:00:00 27.6 10 Sudeste 19 Sur 0 -- -- 33
2017-09-03 15:00:00 26.4 9 Sur 18 Sur 0 -- -- 35
2017-09-03 14:00:00 24 6 Sur 16 Sur 0 -- -- 41
2017-09-03 13:00:00 23.7 7 Sudeste 13 Este 0 -- -- 40
2017-09-03 12:00:00 21.3 4 Este 9 Este 0 -- -- 45
2017-09-03 11:00:00 17.5 2 Sudeste 13 Sudoeste 0 -- -- 52
2017-09-03 10:00:00 15 0 Calma 5 Norte 0 -- -- 67
2017-09-03 09:00:00 12.2 0 Calma 10 Noroeste 0 -- -- 76
2017-09-03 08:00:00 9.5 3 Noroeste 6 Noroeste 0 -- -- 86
2017-09-03 07:00:00 8.9 0 Calma 3 Noroeste 0 -- -- 86
2017-09-03 06:00:00 9.2 0 Calma 4 Sudoeste 0 -- -- 84
2017-09-03 05:00:00 9.7 0 Calma 3 Noroeste 0 -- -- 82
2017-09-03 04:00:00 10.3 0 Calma 2 Oeste 0 -- -- 80
2017-09-03 03:00:00 10.8 0 Calma 4 Oeste 0 -- -- 79
2017-09-03 02:00:00 11.3 0 Calma 4 Nordeste 0 -- -- 75
2017-09-03 01:00:00 12.4 0 Calma 2 Nordeste 0 -- -- 71
2017-09-03 00:00:00 14.1 0 Calma 6 Nordeste 0 -- -- 70
2017-09-02 23:00:00 16.2 0 Calma 10 Nordeste 0 -- -- 63
2017-09-02 22:00:00 19 3 Sur 10 Este 0 -- -- 54
2017-09-02 21:00:00 21.9 6 Sudeste 32 Sudoeste 0 -- -- 46
2017-09-02 20:00:00 24.7 11 Oeste 37 Sudoeste 0 -- -- 38
2017-09-02 19:00:00 26.4 21 Sudoeste 39 Sudoeste 0 -- -- 33
2017-09-02 18:00:00 27.7 18 Sudoeste 41 Sudoeste 0 -- -- 28
2017-09-02 17:00:00 28.2 16 Sudoeste 32 Sudoeste 0 -- -- 29
2017-09-02 16:00:00 27.5 13 Sur 28 Sudoeste 0 -- -- 30
2017-09-02 15:00:00 27.1 8 Sur 24 Oeste 0 -- -- 30
2017-09-02 14:00:00 26.4 6 Oeste 21 Sur 0 -- -- 25
2017-09-02 13:00:00 24.7 10 Sur 20 Sudoeste 0 -- -- 28
2017-09-02 12:00:00 23 7 Sudoeste 22 Oeste 0 -- -- 33
2017-09-02 11:00:00 20.7 6 Sudoeste 13 Sudoeste 0 -- -- 40
2017-09-02 10:00:00 17.8 2 Sudeste 5 Sudoeste 0 -- -- 49
2017-09-02 09:00:00 11.6 0 Calma 4 Noroeste 0 -- -- 72
2017-09-02 08:00:00 7.3 0 Calma 3 Norte 0 -- -- 81
2017-09-02 07:00:00 7.8 0 Calma 5 Oeste 0 -- -- 80
2017-09-02 06:00:00 8.6 0 Calma 4 Noroeste 0 -- -- 78
2017-09-02 05:00:00 9.7 0 Calma 5 Oeste 0 -- -- 75
2017-09-02 04:00:00 10.8 0 Calma 6 Oeste 0 -- -- 73
2017-09-02 03:00:00 12.3 3 Noroeste 7 Oeste 0 -- -- 67
2017-09-02 02:00:00 14.2 2 Noroeste 11 Noroeste 0 -- -- 58
2017-09-02 01:00:00 15.7 0 Calma 14 Oeste 0 -- -- 59
2017-09-02 00:00:00 17.8 6 Oeste 20 Oeste 0 -- -- 47
2017-09-01 23:00:00 18.6 4 Oeste 27 Oeste 0 -- -- 45
2017-09-01 22:00:00 19.6 10 Oeste 27 Sudoeste 0 -- -- 43
2017-09-01 21:00:00 21.1 6 Oeste 32 Sudoeste 0 -- -- 40
2017-09-01 20:00:00 23.1 13 Oeste 44 Sudoeste 0 -- -- 36
2017-09-01 19:00:00 25.5 18 Oeste 46 Oeste 0 -- -- 29
2017-09-01 18:00:00 26.6 22 Oeste 42 Sudoeste 0 -- -- 29
2017-09-01 17:00:00 27.3 17 Oeste 39 Oeste 0 -- -- 30
2017-09-01 16:00:00 27.8 15 Oeste 35 Oeste 0 -- -- 28
2017-09-01 15:00:00 27.7 15 Oeste 32 Sudoeste 0 -- -- 24
2017-09-01 14:00:00 26.7 13 Oeste 26 Sudoeste 0 -- -- 25
2017-09-01 13:00:00 24.4 7 Sudoeste 21 Sur 0 -- -- 35
2017-09-01 12:00:00 22 7 Sudoeste 21 Oeste 0 -- -- 45
2017-09-01 11:00:00 19.6 4 Sudeste 13 Sudoeste 0 -- -- 55
2017-09-01 10:00:00 17.8 5 Sudoeste 11 Sudoeste 0 -- -- 61
2017-09-01 09:00:00 15.3 3 Sudoeste 14 Sudoeste 0 -- -- 72
2017-09-01 08:00:00 13.6 2 Sur 6 Sudoeste 0 -- -- 79
2017-09-01 07:00:00 14 0 Calma 6 Sudeste 0 -- -- 79
2017-09-01 06:00:00 13.8 0 Calma 6 Nordeste 0 -- -- 82
2017-09-01 05:00:00 14.3 3 Sudeste 5 Este 0 -- -- 78
2017-09-01 04:00:00 14.6 0 Calma 4 Este 0 -- -- 76
2017-09-01 03:00:00 15.6 0 Calma 5 Noroeste 0 -- -- 71
2017-09-01 02:00:00 17.1 8 Oeste 21 Oeste 0 -- -- 63
2017-09-01 01:00:00 16.1 5 Sudoeste 16 Sudoeste 0 -- -- 66
2017-09-01 00:00:00 17.5 3 Este 15 Oeste 0 -- -- 63
2017-08-31 23:00:00 19.4 6 Noroeste 18 Sudoeste 0 -- -- 56
2017-08-31 22:00:00 21.1 7 Sudoeste 21 Oeste 0 -- -- 51
2017-08-31 21:00:00 23 8 Sudoeste 19 Sudoeste 0 -- -- 47
2017-08-31 20:00:00 24.8 12 Sur 26 Sur 0 -- -- 45
2017-08-31 19:00:00 26.5 11 Sur 28 Sudoeste 0 -- -- 40
2017-08-31 18:00:00 27.7 13 Sudoeste 28 Oeste 0 -- -- 38
2017-08-31 17:00:00 27.9 11 Sur 26 Sur 0 -- -- 39
2017-08-31 16:00:00 27.7 9 Sudoeste 24 Sudoeste 0 -- -- 40
2017-08-31 15:00:00 27.1 8 Sudoeste 28 Sudoeste 0 -- -- 41
2017-08-31 14:00:00 26.1 13 Sudoeste 27 Sudoeste 0 -- -- 47
2017-08-31 13:00:00 25 8 Sudoeste 22 Sudoeste 0 -- -- 51
2017-08-31 12:00:00 22.4 7 Sur 17 Sudoeste 0 -- -- 64
2017-08-31 11:00:00 22.2 5 Sur 15 Sudoeste 0 -- -- 65
2017-08-31 10:00:00 19.2 0 Calma 8 Sudeste 0 -- -- 79
2017-08-31 09:00:00 17.6 4 Oeste 11 Oeste 0 -- -- 85
2017-08-31 08:00:00 17.4 3 Sur 8 Oeste 0 -- -- 88
2017-08-31 07:00:00 17.8 3 Oeste 10 Sudoeste 0 -- -- 87
2017-08-31 06:00:00 17.9 3 Noroeste 22 Sudoeste 0 -- -- 84
2017-08-31 05:00:00 18 2 Sur 13 Sudoeste 0 -- -- 89
2017-08-31 04:00:00 18.7 0 Calma 5 Noroeste 0 -- -- 89
2017-08-31 03:00:00 19.3 2 Este 10 Sudoeste 0 -- -- 89
2017-08-31 02:00:00 19.2 3 Sudeste 6 Sudeste 0 -- -- 90
2017-08-31 01:00:00 19 0 Calma 12 Noroeste 0 -- -- 90
2017-08-31 00:00:00 19.2 0 Calma 3 Noroeste 0 -- -- 86
2017-08-30 23:00:00 20.5 0 Calma 12 Sudoeste 0 -- -- 81
2017-08-30 22:00:00 21.5 4 Sudoeste 9 Sudoeste 0 -- -- 81
2017-08-30 21:00:00 22.6 4 Sudeste 13 Sudeste 0.2 -- -- 75
2017-08-30 20:00:00 24.4 0 Calma 8 Sudoeste 0 -- -- 61
2017-08-30 19:00:00 25.9 2 Sudoeste 10 Sur 0 -- -- 52
2017-08-30 18:00:00 27 4 Sudeste 13 Este 0 -- -- 48
2017-08-30 17:00:00 26.6 6 Sur 17 Sur 0 -- -- 48
2017-08-30 16:00:00 27.1 9 Sudeste 18 Sudoeste 0 -- -- 46
2017-08-30 15:00:00 26.9 9 Sudeste 20 Este 0 -- -- 47
2017-08-30 14:00:00 28 10 Sur 23 Este 0 -- -- 46
2017-08-30 13:00:00 27 9 Sudoeste 17 Sur 0 -- -- 47
2017-08-30 12:00:00 26.2 8 Sur 17 Sur 0 -- -- 49
2017-08-30 11:00:00 24.5 9 Sudeste 18 Sudeste 0 -- -- 53
2017-08-30 10:00:00 22.4 5 Sudeste 10 Sur 0 -- -- 65
2017-08-30 09:00:00 19 0 Calma 4 Sudeste 0 -- -- 78
2017-08-30 08:00:00 18.9 0 Calma 8 Sudeste 0 -- -- 76
2017-08-30 07:00:00 19.8 4 Sudoeste 16 Sur 0 -- -- 72
2017-08-30 06:00:00 20.9 12 Sudoeste 25 Sudoeste 0 -- -- 65
2017-08-30 05:00:00 19.5 5 Este 15 Este 0 -- -- 66
2017-08-30 04:00:00 18.5 0 Calma 8 Sudeste 0 -- -- 77
2017-08-30 03:00:00 18.1 0 Calma 3 Sur 0 -- -- 79
2017-08-30 02:00:00 17.5 0 Calma 5 Norte 0 -- -- 78
2017-08-30 01:00:00 18.2 2 Oeste 6 Oeste 0 -- -- 74
2017-08-30 00:00:00 19.5 4 Noroeste 8 Sudoeste 0 -- -- 69
2017-08-29 23:00:00 21.3 3 Sur 9 Noroeste 0 -- -- 64
2017-08-29 22:00:00 22.6 4 Este 21 Este 0 -- -- 59
2017-08-29 21:00:00 23.8 6 Sudeste 21 Sudeste 0 -- -- 59
2017-08-29 20:00:00 25.3 6 Este 22 Sudeste 0 -- -- 58
2017-08-29 19:00:00 26.2 7 Sudeste 31 Este 0 -- -- 56
2017-08-29 18:00:00 27.2 12 Sudeste 27 Este 0 -- -- 53
2017-08-29 17:00:00 28.6 12 Sudeste 27 Nordeste 0 -- -- 47
2017-08-29 16:00:00 28.7 9 Sudeste 18 Sudeste 0 -- -- 55
2017-08-29 15:00:00 27.8 6 Sudeste 17 Este 0 -- -- 55
2017-08-29 14:00:00 29.2 7 Este 17 Sudeste 0 -- -- 52
2017-08-29 13:00:00 28.3 6 Sudeste 19 Sur 0 -- -- 54
2017-08-29 12:00:00 26.8 7 Sudeste 13 Sudeste 0 -- -- 58
2017-08-29 11:00:00 24.6 3 Norte 21 Noroeste 0 -- -- 67
2017-08-29 10:00:00 20.5 11 Noroeste 18 Noroeste 0 -- -- 84
2017-08-29 09:00:00 18.9 4 Nordeste 12 Sudeste 0 -- -- 91
2017-08-29 08:00:00 17.7 4 Sudeste 9 Sudeste 0 -- -- 94
2017-08-29 07:00:00 17.8 4 Sudeste 7 Este 0 -- -- 93
2017-08-29 06:00:00 18.6 3 Sudeste 10 Sudeste 0 -- -- 88
2017-08-29 05:00:00 20.2 4 Sudeste 11 Norte 0 -- -- 84
2017-08-29 04:00:00 21.2 4 Noroeste 8 Noroeste 0 -- -- 81
2017-08-29 03:00:00 20.6 2 Oeste 17 Noroeste 0 -- -- 81
2017-08-29 02:00:00 20.3 14 Noroeste 35 Oeste 0 -- -- 78
2017-08-29 01:00:00 21.5 18 Oeste 38 Oeste 0 -- -- 73
2017-08-29 00:00:00 22.8 0 Calma 12 Sudoeste 0.2 -- -- 81
2017-08-28 23:00:00 24.4 9 Sudoeste 21 Sudoeste 0 -- -- 69
2017-08-28 22:00:00 24.9 0 Calma 4 Nordeste 0 -- -- 67
2017-08-28 21:00:00 26.3 0 Calma 12 Noroeste 0 -- -- 60
2017-08-28 20:00:00 28.6 8 Noroeste 26 Oeste 0 -- -- 51
2017-08-28 19:00:00 29.9 10 Oeste 38 Oeste 0 -- -- 47
2017-08-28 18:00:00 31.9 5 Sur 18 Sur 0 -- -- 36
2017-08-28 17:00:00 33.1 11 Sur 19 Sur 0 -- -- 31
2017-08-28 16:00:00 34 6 Sudeste 21 Sur 0 -- -- 33
2017-08-28 15:00:00 33.3 10 Sudeste 17 Sudeste 0 -- -- 36
2017-08-28 14:00:00 33 7 Sudeste 16 Sur 0 -- -- 35
2017-08-28 13:00:00 31.8 4 Sudeste 10 Sur 0 -- -- 36
2017-08-28 12:00:00 29.8 4 Norte 14 Norte 0 -- -- 39
2017-08-28 11:00:00 26.3 6 Nordeste 13 Nordeste 0 -- -- 51
2017-08-28 10:00:00 22.9 0 Calma 5 Noroeste 0 -- -- 68
2017-08-28 09:00:00 18.7 0 Calma 4 Noroeste 0 -- -- 93
2017-08-28 08:00:00 16.4 0 Calma 5 Oeste 0 -- -- 94
2017-08-28 07:00:00 16.2 0 Calma 6 Nordeste 0 -- -- 93
2017-08-28 06:00:00 16.7 0 Calma 4 Este 0 -- -- 92
2017-08-28 05:00:00 17.2 0 Calma 12 Noroeste 0 -- -- 91
2017-08-28 04:00:00 16.9 0 Calma 4 Noroeste 0 -- -- 91
2017-08-28 03:00:00 17.4 0 Calma 3 Este 0 -- -- 90
2017-08-28 02:00:00 18.4 0 Calma 3 Nordeste 0 -- -- 89
2017-08-28 01:00:00 19.5 0 Calma 5 Sudeste 0 -- -- 86
2017-08-28 00:00:00 20.6 2 Este 7 Norte 0 -- -- 83
2017-08-27 23:00:00 21.9 4 Noroeste 8 Oeste 0 -- -- 75
2017-08-27 22:00:00 21.3 0 Calma 8 Noroeste 0 -- -- 85
2017-08-27 21:00:00 22.3 3 Noroeste 8 Norte 0.2 -- -- 81
2017-08-27 20:00:00 22.8 4 Norte 28 Noroeste 0.2 -- -- 77
2017-08-27 19:00:00 24.1 16 Oeste 43 Noroeste 0 -- -- 65
2017-08-27 18:00:00 27.8 19 Oeste 49 Noroeste 0 -- -- 51
2017-08-27 17:00:00 30.6 4 Sur 15 Sudoeste 0 -- -- 42
2017-08-27 16:00:00 31.6 5 Sur 17 Sur 0 -- -- 42
2017-08-27 15:00:00 33.5 7 Sudeste 14 Nordeste 0 -- -- 33
2017-08-27 14:00:00 32.9 6 Sudeste 15 Sudeste 0 -- -- 31
2017-08-27 13:00:00 28.4 3 Nordeste 14 Norte 0 -- -- 49
2017-08-27 12:00:00 27.4 6 Nordeste 16 Sudoeste 0 -- -- 53
2017-08-27 11:00:00 27.6 8 Sudoeste 15 Sudoeste 0 -- -- 52
2017-08-27 10:00:00 23.8 0 Calma 6 Sudeste 0 -- -- 71
2017-08-27 09:00:00 22.1 0 Calma 6 Sudeste 0 -- -- 74
2017-08-27 08:00:00 20.8 5 Sudeste 14 Noroeste 0 -- -- 75
2017-08-27 07:00:00 21.6 7 Noroeste 12 Noroeste 0 -- -- 67
2017-08-27 06:00:00 21.5 0 Calma 6 Noroeste 0 -- -- 79
2017-08-27 05:00:00 22 0 Calma 5 Noroeste 0 -- -- 78
2017-08-27 04:00:00 22.3 0 Calma 6 Noroeste 0 -- -- 78
2017-08-27 03:00:00 22.6 0 Calma 4 Sudeste 0 -- -- 77
2017-08-27 02:00:00 24.2 4 Este 24 Este 0 -- -- 69
2017-08-27 01:00:00 26.1 9 Noroeste 19 Norte 0 -- -- 50
2017-08-27 00:00:00 24.4 3 Sudoeste 8 Noroeste 0 -- -- 65
2017-08-26 23:00:00 24.9 0 Calma 13 Norte 0 -- -- 69
2017-08-26 22:00:00 25.2 3 Norte 21 Este 0 -- -- 72
2017-08-26 21:00:00 26.1 7 Nordeste 25 Este 0 -- -- 59
2017-08-26 20:00:00 29.4 10 Sudeste 23 Sur 0 -- -- 51
2017-08-26 19:00:00 32.2 3 Este 13 Sudeste 0 -- -- 42
2017-08-26 18:00:00 33.4 7 Sudeste 16 Sur 0 -- -- 35
2017-08-26 17:00:00 34.3 8 Sudeste 17 Sur 0 -- -- 28
2017-08-26 16:00:00 33.3 7 Sudeste 19 Sudeste 0 -- -- 30
2017-08-26 15:00:00 33.8 9 Sudeste 17 Sur 0 -- -- 31
2017-08-26 14:00:00 32.5 8 Sudeste 17 Sudeste 0 -- -- 32
2017-08-26 13:00:00 31.6 9 Sudeste 20 Sur 0 -- -- 34
2017-08-26 12:00:00 30.3 5 Sudeste 10 Este 0 -- -- 36
2017-08-26 11:00:00 28.9 4 Sudeste 8 Sudeste 0 -- -- 37
2017-08-26 10:00:00 25.1 2 Noroeste 6 Norte 0 -- -- 49
2017-08-26 09:00:00 20.1 2 Norte 9 Noroeste 0 -- -- 68
2017-08-26 08:00:00 16.5 0 Calma 5 Noroeste 0 -- -- 79
2017-08-26 07:00:00 17 0 Calma 6 Norte 0 -- -- 76
2017-08-26 06:00:00 18.1 0 Calma 5 Noroeste 0 -- -- 72
2017-08-26 05:00:00 19 0 Calma 13 Sudeste 0 -- -- 69
2017-08-26 04:00:00 19.6 0 Calma 5 Este 0 -- -- 66
2017-08-26 03:00:00 20.8 0 Calma 12 Norte 0 -- -- 60
2017-08-26 02:00:00 23.1 10 Norte 17 Norte 0 -- -- 47
2017-08-26 01:00:00 22 4 Noroeste 8 Noroeste 0 -- -- 60
2017-08-26 00:00:00 24.1 3 Noroeste 15 Nordeste 0 -- -- 51
2017-08-25 23:00:00 25.5 7 Sudeste 18 Sur 0 -- -- 48
2017-08-25 22:00:00 25.5 3 Este 11 Este 0 -- -- 53
2017-08-25 21:00:00 27.9 5 Este 28 Sudeste 0 -- -- 49
2017-08-25 20:00:00 30.2 17 Sudeste 35 Sudeste 0 -- -- 39
2017-08-25 19:00:00 33.1 10 Sudeste 24 Sudeste 0 -- -- 32
2017-08-25 18:00:00 33.2 11 Sudeste 28 Este 0 -- -- 34
2017-08-25 17:00:00 32.3 9 Sudeste 27 Sudeste 0 -- -- 40
2017-08-25 16:00:00 33.1 14 Sudeste 27 Sudeste 0 -- -- 30
2017-08-25 15:00:00 31.3 9 Sudeste 19 Sudeste 0 -- -- 34
2017-08-25 14:00:00 30.8 9 Sudeste 19 Sudeste 0 -- -- 33
2017-08-25 13:00:00 31.3 9 Sudeste 21 Sur 0 -- -- 30
2017-08-25 12:00:00 29.6 5 Este 10 Este 0 -- -- 33
2017-08-25 11:00:00 27.1 4 Sudeste 9 Sudeste 0 -- -- 44
2017-08-25 10:00:00 23.4 0 Calma 7 Sudeste 0 -- -- 63
2017-08-25 09:00:00 19.3 0 Calma 5 Sudeste 0 -- -- 72
2017-08-25 08:00:00 16.2 0 Calma 4 Este 0 -- -- 78
2017-08-25 07:00:00 16.2 0 Calma 3 Noroeste 0 -- -- 79
2017-08-25 06:00:00 16.9 0 Calma 4 Oeste 0 -- -- 75
2017-08-25 05:00:00 17.8 3 Noroeste 4 Este 0 -- -- 72
2017-08-25 04:00:00 18.6 3 Noroeste 7 Norte 0 -- -- 68
2017-08-25 03:00:00 18.5 4 Noroeste 7 Noroeste -- -- -- 70
2017-08-25 02:00:00 19.1 4 Noroeste 7 Norte 0 -- -- 69
2017-08-25 01:00:00 20 3 Noroeste 5 Noroeste 0 -- -- 67
2017-08-25 00:00:00 21.2 0 Calma 4 Oeste 0 -- -- 62
2017-08-24 23:00:00 23.2 0 Calma 4 Este 0 -- -- 57
2017-08-24 22:00:00 25.9 0 Calma 11 Sudeste 0 -- -- 47
2017-08-24 21:00:00 28.2 5 Sudeste 20 Este 0 -- -- 39
2017-08-24 20:00:00 30.8 8 Sudeste 22 Sudeste 0 -- -- 32
2017-08-24 19:00:00 32.7 6 Sudeste 26 Sudeste 0 -- -- 34
2017-08-24 18:00:00 33.3 10 Sudeste 19 Sudeste 0 -- -- 34
2017-08-24 17:00:00 32.8 10 Sudeste 21 Sudeste 0 -- -- 34
2017-08-24 16:00:00 32.3 12 Sudeste 23 Sur 0 -- -- 36
2017-08-24 15:00:00 31.8 12 Sudeste 24 Sudeste 0 -- -- 37
2017-08-24 14:00:00 31.3 10 Sudeste 24 Sudeste 0 -- -- 32
2017-08-24 13:00:00 30.1 7 Sudeste 14 Sudeste 0 -- -- 41
2017-08-24 12:00:00 28.5 4 Sur 9 Sudeste 0 -- -- 49
2017-08-24 11:00:00 27.4 3 Nordeste 14 Norte 0 -- -- 52
2017-08-24 10:00:00 24.8 6 Nordeste 14 Nordeste 0 -- -- 56
2017-08-24 09:00:00 22.1 3 Nordeste 16 Norte 0 -- -- 69
2017-08-24 08:00:00 19.6 4 Oeste 9 Sur 0 -- -- 77
2017-08-24 07:00:00 21 6 Noroeste 22 Norte 0 -- -- 72
2017-08-24 06:00:00 20.8 10 Oeste 28 Norte 0 -- -- 73
2017-08-24 05:00:00 20.8 12 Norte 28 Norte 0 -- -- 73
2017-08-24 04:00:00 20.5 10 Norte 33 Nordeste 1 -- -- 77
2017-08-24 03:00:00 21.5 12 Norte 28 Noroeste 0.4 -- -- 80
2017-08-24 02:00:00 22.3 9 Noroeste 20 Oeste 4.2 -- -- 83
2017-08-24 01:00:00 23.4 18 Noroeste 32 Oeste 0 -- -- 75
2017-08-24 00:00:00 23.8 3 Sur 18 Sur 0 -- -- 74
2017-08-23 23:00:00 25.2 0 Calma 14 Noroeste 0 -- -- 71
2017-08-23 22:00:00 25.5 4 Sudeste 9 Sudeste 0 -- -- 66
2017-08-23 21:00:00 27 6 Noroeste 11 Sudeste 0 -- -- 59
2017-08-23 20:00:00 28.2 7 Sudeste 22 Sur 0 -- -- 55
2017-08-23 19:00:00 30.4 6 Sur 19 Este 0 -- -- 47
2017-08-23 18:00:00 31.4 8 Este 21 Sur 0 -- -- 42
2017-08-23 17:00:00 32.1 19 Sur 36 Sur 0 -- -- 39
2017-08-23 16:00:00 33 13 Sudeste 28 Sudeste 0 -- -- 35
2017-08-23 15:00:00 32.1 10 Sudeste 26 Sudeste 0 -- -- 36
2017-08-23 14:00:00 31.1 12 Sudeste 29 Sur 0 -- -- 42
2017-08-23 13:00:00 30.1 8 Sudeste 22 Este 0 -- -- 45
2017-08-23 12:00:00 29.7 5 Sudeste 15 Sudeste 0 -- -- 45
2017-08-23 11:00:00 27.4 6 Sudeste 11 Este 0 -- -- 48
2017-08-23 10:00:00 25.5 3 Este 6 Este 0 -- -- 54
2017-08-23 09:00:00 21.4 3 Norte 7 Norte 0 -- -- 75
2017-08-23 08:00:00 18.5 0 Calma 3 Oeste 0 -- -- 84
2017-08-23 07:00:00 18.8 0 Calma 5 Noroeste 0 -- -- 81
2017-08-23 06:00:00 19.5 3 Noroeste 8 Noroeste 0 -- -- 79
2017-08-23 05:00:00 20.2 0 Calma 6 Nordeste 0 -- -- 78
2017-08-23 04:00:00 21.1 2 Sur 9 Sur 0 -- -- 76
2017-08-23 03:00:00 22.5 0 Calma 12 Norte 0 -- -- 72
2017-08-23 02:00:00 24 8 Noroeste 14 Noroeste 0 -- -- 66
2017-08-23 01:00:00 24.6 0 Calma 6 Sudoeste 0 -- -- 66
2017-08-23 00:00:00 25.5 0 Calma 16 Sudeste 0 -- -- 61
2017-08-22 23:00:00 26.3 5 Sudeste 13 Sudeste 0 -- -- 62
2017-08-22 22:00:00 27.7 4 Sudeste 15 Sudeste 0 -- -- 57
2017-08-22 21:00:00 29.7 5 Sudeste 13 Este 0 -- -- 51
2017-08-22 20:00:00 32.8 5 Sudeste 12 Sudeste 0 -- -- 40
2017-08-22 19:00:00 35.1 5 Sudeste 16 Sur 0 -- -- 32
2017-08-22 18:00:00 35.3 8 Sur 21 Sur 0 -- -- 31
2017-08-22 17:00:00 35.2 10 Sur 20 Sur 0 -- -- 29
2017-08-22 16:00:00 34.9 9 Sur 20 Sur 0 -- -- 27
2017-08-22 15:00:00 33.7 10 Sudeste 23 Sudoeste 0 -- -- 34
2017-08-22 14:00:00 32.8 8 Sur 23 Sur 0 -- -- 38
2017-08-22 13:00:00 31.3 8 Sur 15 Sur 0 -- -- 44
2017-08-22 12:00:00 30.3 5 Este 13 Este 0 -- -- 44
2017-08-22 11:00:00 28.8 4 Sudeste 12 Este 0 -- -- 43
2017-08-22 10:00:00 26.9 4 Sudeste 14 Noroeste 0 -- -- 44
2017-08-22 09:00:00 23 6 Noroeste 20 Noroeste 0 -- -- 51
2017-08-22 08:00:00 15.8 3 Noroeste 7 Noroeste 0 -- -- 85
2017-08-22 07:00:00 15.9 0 Calma 5 Norte 0 -- -- 86
2017-08-22 06:00:00 16.1 0 Calma 4 Noroeste 0 -- -- 87
2017-08-22 05:00:00 16.8 0 Calma 6 Noroeste 0 -- -- 84
2017-08-22 04:00:00 17.2 0 Calma 2 Noroeste 0 -- -- 79
2017-08-22 03:00:00 18 0 Calma 3 Noroeste 0 -- -- 76
2017-08-22 02:00:00 19.1 0 Calma 5 Noroeste 0 -- -- 70
2017-08-22 01:00:00 19.6 2 Noroeste 5 Noroeste 0 -- -- 70
2017-08-22 00:00:00 20.2 0 Calma 4 Noroeste 0 -- -- 61